createdAt,value
2022-09-13T00:00:59.838Z,91.53
2022-09-13T00:01:59.678Z,91.73
2022-09-13T00:02:59.648Z,92.54
2022-09-13T00:03:59.648Z,91.83
2022-09-13T00:04:59.648Z,92.13
2022-09-13T00:05:59.666Z,92.18
2022-09-13T00:06:59.651Z,92.28
2022-09-13T00:07:59.646Z,92.24
2022-09-13T00:08:59.648Z,92.68
2022-09-13T00:09:59.650Z,92.33
2022-09-13T00:10:59.654Z,92.68
2022-09-13T00:11:59.657Z,92.38
2022-09-13T00:12:59.652Z,92.58
2022-09-13T00:13:59.660Z,92.48
2022-09-13T00:14:59.650Z,92.44
2022-09-13T00:15:59.671Z,92.44
2022-09-13T00:16:59.651Z,92.44
2022-09-13T00:17:59.654Z,92.74
2022-09-13T00:18:59.657Z,92.54
2022-09-13T00:19:59.653Z,92.54
2022-09-13T00:20:59.652Z,92.54
2022-09-13T00:21:59.670Z,92.54
2022-09-13T00:22:59.655Z,92.80
2022-09-13T00:23:59.664Z,92.90
2022-09-13T00:24:59.654Z,93.00
2022-09-13T00:25:59.659Z,93.10
2022-09-13T00:26:59.653Z,92.40
2022-09-13T00:27:59.656Z,92.80
2022-09-13T00:28:59.661Z,92.90
2022-09-13T00:29:59.656Z,92.80
2022-09-13T00:30:59.654Z,93.20
2022-09-13T00:31:59.694Z,92.84
2022-09-13T00:32:59.655Z,93.20
2022-09-13T00:33:59.655Z,93.44
2022-09-13T00:34:59.659Z,93.91
2022-09-13T00:35:59.658Z,94.26
2022-09-13T00:36:59.657Z,94.06
2022-09-13T00:37:59.682Z,93.75
2022-09-13T00:38:59.658Z,94.06
2022-09-13T00:39:59.684Z,94.15
2022-09-13T00:40:59.659Z,93.95
2022-09-13T00:41:59.658Z,94.36
2022-09-13T00:42:59.663Z,94.36
2022-09-13T00:43:59.659Z,94.26
2022-09-13T00:44:59.664Z,94.15
2022-09-13T00:45:59.727Z,93.55
2022-09-13T00:46:59.660Z,93.95
2022-09-13T00:47:59.674Z,94.56
2022-09-13T00:48:59.661Z,94.66
2022-09-13T00:49:59.666Z,94.56
2022-09-13T00:50:59.662Z,94.31
2022-09-13T00:51:59.668Z,94.21
2022-09-13T00:52:59.662Z,94.51
2022-09-13T00:53:59.684Z,94.11
2022-09-13T00:54:59.664Z,93.30
2022-09-13T00:55:59.664Z,93.30
2022-09-13T00:56:59.663Z,93.10
2022-09-13T00:57:59.666Z,92.80
2022-09-13T00:58:59.669Z,93.00
2022-09-13T00:59:59.671Z,92.90
2022-09-13T01:00:59.734Z,92.80
2022-09-13T01:01:59.697Z,93.00
2022-09-13T01:02:59.668Z,93.16
2022-09-13T01:03:59.670Z,92.55
2022-09-13T01:04:59.666Z,92.65
2022-09-13T01:05:59.668Z,92.85
2022-09-13T01:06:59.665Z,92.85
2022-09-13T01:07:59.675Z,93.26
2022-09-13T01:08:59.668Z,93.36
2022-09-13T01:09:59.774Z,93.16
2022-09-13T01:10:59.668Z,93.05
2022-09-13T01:11:59.670Z,92.76
2022-09-13T01:12:59.668Z,92.45
2022-09-13T01:13:59.669Z,92.30
2022-09-13T01:14:59.671Z,92.55
2022-09-13T01:15:59.743Z,92.50
2022-09-13T01:16:59.669Z,92.55
2022-09-13T01:17:59.672Z,92.35
2022-09-13T01:18:59.670Z,92.45
2022-09-13T01:19:59.672Z,92.35
2022-09-13T01:20:59.690Z,92.55
2022-09-13T01:21:59.682Z,92.05
2022-09-13T01:22:59.678Z,92.55
2022-09-13T01:23:59.674Z,92.55
2022-09-13T01:24:59.675Z,92.45
2022-09-13T01:25:59.692Z,92.65
2022-09-13T01:26:59.674Z,92.35
2022-09-13T01:27:59.676Z,92.14
2022-09-13T01:28:59.677Z,92.40
2022-09-13T01:29:59.677Z,93.00
2022-09-13T01:30:59.676Z,92.49
2022-09-13T01:31:59.772Z,93.00
2022-09-13T01:32:59.679Z,93.00
2022-09-13T01:33:59.679Z,92.80
2022-09-13T01:34:59.676Z,93.00
2022-09-13T01:35:59.676Z,92.90
2022-09-13T01:36:59.678Z,92.85
2022-09-13T01:37:59.678Z,93.00
2022-09-13T01:38:59.680Z,93.30
2022-09-13T01:39:59.711Z,93.46
2022-09-13T01:41:04.110Z,93.96
2022-09-13T01:41:59.694Z,94.17
2022-09-13T01:42:59.687Z,93.76
2022-09-13T01:43:59.684Z,93.46
2022-09-13T01:44:59.681Z,94.17
2022-09-13T01:45:59.708Z,93.87
2022-09-13T01:46:59.695Z,93.76
2022-09-13T01:47:59.681Z,93.16
2022-09-13T01:48:59.684Z,93.16
2022-09-13T01:49:59.683Z,92.96
2022-09-13T01:50:59.685Z,92.65
2022-09-13T01:51:59.682Z,92.25
2022-09-13T01:52:59.685Z,92.45
2022-09-13T01:53:59.681Z,92.45
2022-09-13T01:54:59.686Z,92.25
2022-09-13T01:55:59.682Z,92.65
2022-09-13T01:56:59.687Z,92.69
2022-09-13T01:57:59.710Z,92.40
2022-09-13T01:58:59.689Z,92.49
2022-09-13T01:59:59.683Z,92.49
2022-09-13T02:00:59.773Z,92.60
2022-09-13T02:01:59.717Z,92.49
2022-09-13T02:02:59.689Z,92.90
2022-09-13T02:03:59.686Z,92.90
2022-09-13T02:04:59.690Z,93.00
2022-09-13T02:05:59.687Z,93.00
2022-09-13T02:06:59.695Z,92.69
2022-09-13T02:07:59.689Z,92.35
2022-09-13T02:08:59.691Z,92.60
2022-09-13T02:09:59.691Z,92.29
2022-09-13T02:10:59.690Z,92.29
2022-09-13T02:11:59.688Z,92.69
2022-09-13T02:12:59.690Z,92.35
2022-09-13T02:13:59.707Z,92.49
2022-09-13T02:14:59.700Z,92.69
2022-09-13T02:15:59.689Z,92.55
2022-09-13T02:16:59.704Z,92.80
2022-09-13T02:17:59.691Z,92.49
2022-09-13T02:18:59.692Z,92.69
2022-09-13T02:19:59.691Z,92.45
2022-09-13T02:20:59.694Z,92.25
2022-09-13T02:21:59.692Z,92.55
2022-09-13T02:22:59.701Z,92.29
2022-09-13T02:23:59.693Z,92.35
2022-09-13T02:24:59.695Z,92.25
2022-09-13T02:25:59.693Z,92.35
2022-09-13T02:26:59.697Z,92.25
2022-09-13T02:27:59.695Z,92.65
2022-09-13T02:28:59.696Z,92.45
2022-09-13T02:29:59.804Z,92.35
2022-09-13T02:30:59.699Z,92.55
2022-09-13T02:31:59.793Z,92.35
2022-09-13T02:32:59.698Z,92.25
2022-09-13T02:33:59.697Z,92.65
2022-09-13T02:34:59.699Z,92.35
2022-09-13T02:35:59.699Z,92.45
2022-09-13T02:36:59.701Z,92.35
2022-09-13T02:37:59.700Z,92.35
2022-09-13T02:38:59.704Z,92.85
2022-09-13T02:39:59.772Z,92.45
2022-09-13T02:40:59.701Z,92.45
2022-09-13T02:41:59.700Z,92.41
2022-09-13T02:42:59.702Z,92.45
2022-09-13T02:43:59.702Z,92.25
2022-09-13T02:44:59.704Z,92.50
2022-09-13T02:45:59.780Z,92.41
2022-09-13T02:46:59.704Z,92.76
2022-09-13T02:47:59.706Z,92.41
2022-09-13T02:48:59.707Z,92.45
2022-09-13T02:49:59.704Z,92.65
2022-09-13T02:50:59.707Z,92.76
2022-09-13T02:51:59.703Z,92.50
2022-09-13T02:52:59.706Z,92.25
2022-09-13T02:53:59.705Z,92.30
2022-09-13T02:54:59.708Z,92.10
2022-09-13T02:55:59.711Z,92.45
2022-09-13T02:56:59.709Z,92.35
2022-09-13T02:57:59.706Z,92.50
2022-09-13T02:58:59.705Z,92.50
2022-09-13T02:59:59.706Z,92.25
2022-09-13T03:00:59.789Z,92.21
2022-09-13T03:01:59.800Z,92.30
2022-09-13T03:02:59.711Z,92.50
2022-09-13T03:03:59.714Z,92.30
2022-09-13T03:04:59.723Z,92.41
2022-09-13T03:05:59.712Z,92.41
2022-09-13T03:06:59.715Z,92.61
2022-09-13T03:07:59.714Z,92.61
2022-09-13T03:08:59.715Z,92.61
2022-09-13T03:09:59.709Z,91.90
2022-09-13T03:10:59.712Z,92.21
2022-09-13T03:11:59.710Z,92.50
2022-09-13T03:12:59.711Z,92.61
2022-09-13T03:13:59.711Z,92.61
2022-09-13T03:14:59.721Z,92.00
2022-09-13T03:15:59.711Z,92.10
2022-09-13T03:16:59.717Z,91.90
2022-09-13T03:17:59.732Z,92.00
2022-09-13T03:18:59.717Z,92.30
2022-09-13T03:19:59.714Z,92.50
2022-09-13T03:20:59.714Z,92.21
2022-09-13T03:21:59.715Z,92.50
2022-09-13T03:22:59.716Z,92.30
2022-09-13T03:23:59.715Z,92.36
2022-09-13T03:24:59.718Z,93.12
2022-09-13T03:25:59.971Z,92.77
2022-09-13T03:26:59.717Z,93.12
2022-09-13T03:27:59.717Z,92.66
2022-09-13T03:28:59.724Z,93.48
2022-09-13T03:29:59.719Z,93.21
2022-09-13T03:30:59.723Z,93.82
2022-09-13T03:31:59.784Z,93.41
2022-09-13T03:32:59.723Z,94.08
2022-09-13T03:33:59.739Z,93.88
2022-09-13T03:34:59.722Z,93.92
2022-09-13T03:35:59.722Z,94.59
2022-09-13T03:36:59.725Z,93.88
2022-09-13T03:37:59.724Z,94.08
2022-09-13T03:38:59.726Z,94.08
2022-09-13T03:39:59.756Z,94.08
2022-09-13T03:40:59.724Z,94.18
2022-09-13T03:41:59.725Z,94.32
2022-09-13T03:42:59.728Z,93.98
2022-09-13T03:43:59.723Z,94.02
2022-09-13T03:44:59.727Z,94.63
2022-09-13T03:45:59.797Z,93.88
2022-09-13T03:46:59.728Z,94.08
2022-09-13T03:47:59.727Z,94.48
2022-09-13T03:48:59.728Z,94.38
2022-09-13T03:49:59.744Z,94.59
2022-09-13T03:50:59.728Z,94.48
2022-09-13T03:51:59.727Z,94.23
2022-09-13T03:52:59.728Z,94.38
2022-09-13T03:53:59.729Z,94.38
2022-09-13T03:54:59.731Z,94.38
2022-09-13T03:55:59.733Z,94.93
2022-09-13T03:56:59.731Z,94.79
2022-09-13T03:57:59.736Z,94.73
2022-09-13T03:58:59.740Z,94.68
2022-09-13T03:59:59.732Z,95.14
2022-09-13T04:00:59.826Z,94.63
2022-09-13T04:01:59.832Z,95.14
2022-09-13T04:02:59.736Z,95.14
2022-09-13T04:03:59.733Z,95.23
2022-09-13T04:04:59.733Z,95.23
2022-09-13T04:05:59.843Z,95.14
2022-09-13T04:06:59.736Z,95.14
2022-09-13T04:07:59.739Z,95.43
2022-09-13T04:08:59.736Z,95.43
2022-09-13T04:09:59.736Z,95.23
2022-09-13T04:10:59.739Z,95.74
2022-09-13T04:11:59.737Z,95.94
2022-09-13T04:12:59.746Z,95.84
2022-09-13T04:13:59.781Z,95.84
2022-09-13T04:14:59.746Z,95.64
2022-09-13T04:15:59.759Z,95.64
2022-09-13T04:16:59.740Z,95.43
2022-09-13T04:17:59.745Z,95.84
2022-09-13T04:18:59.744Z,95.84
2022-09-13T04:19:59.739Z,95.74
2022-09-13T04:20:59.740Z,95.84
2022-09-13T04:21:59.794Z,95.84
2022-09-13T04:22:59.746Z,95.84
2022-09-13T04:23:59.741Z,95.64
2022-09-13T04:25:02.341Z,95.14
2022-09-13T04:25:59.893Z,95.43
2022-09-13T04:26:59.757Z,95.34
2022-09-13T04:27:59.746Z,95.74
2022-09-13T04:28:59.743Z,94.73
2022-09-13T04:29:59.745Z,94.93
2022-09-13T04:30:59.745Z,94.53
2022-09-13T04:31:59.802Z,95.03
2022-09-13T04:32:59.756Z,95.54
2022-09-13T04:33:59.745Z,95.34
2022-09-13T04:34:59.752Z,96.04
2022-09-13T04:35:59.789Z,95.94
2022-09-13T04:36:59.748Z,95.94
2022-09-13T04:37:59.768Z,95.64
2022-09-13T04:38:59.753Z,95.74
2022-09-13T04:39:59.784Z,95.03
2022-09-13T04:40:59.762Z,95.54
2022-09-13T04:41:59.751Z,95.68
2022-09-13T04:42:59.754Z,95.54
2022-09-13T04:43:59.750Z,95.58
2022-09-13T04:44:59.754Z,95.54
2022-09-13T04:45:59.817Z,95.43
2022-09-13T04:46:59.752Z,95.43
2022-09-13T04:47:59.757Z,95.54
2022-09-13T04:48:59.755Z,95.64
2022-09-13T04:49:59.788Z,95.64
2022-09-13T04:50:59.762Z,95.14
2022-09-13T04:51:59.758Z,95.23
2022-09-13T04:52:59.794Z,95.43
2022-09-13T04:53:59.804Z,95.74
2022-09-13T04:54:59.764Z,96.04
2022-09-13T04:55:59.757Z,96.34
2022-09-13T04:56:59.757Z,96.45
2022-09-13T04:57:59.758Z,95.74
2022-09-13T04:58:59.762Z,95.94
2022-09-13T04:59:59.757Z,95.43
2022-09-13T05:00:59.787Z,95.64
2022-09-13T05:01:59.844Z,96.04
2022-09-13T05:02:59.766Z,96.04
2022-09-13T05:03:59.760Z,96.14
2022-09-13T05:04:59.795Z,96.45
2022-09-13T05:05:59.780Z,96.14
2022-09-13T05:06:59.762Z,96.14
2022-09-13T05:07:59.763Z,96.14
2022-09-13T05:08:59.764Z,96.25
2022-09-13T05:09:59.781Z,96.85
2022-09-13T05:10:59.764Z,96.75
2022-09-13T05:11:59.762Z,96.65
2022-09-13T05:12:59.767Z,96.55
2022-09-13T05:13:59.767Z,96.55
2022-09-13T05:14:59.773Z,96.45
2022-09-13T05:15:59.788Z,96.34
2022-09-13T05:16:59.777Z,96.34
2022-09-13T05:17:59.770Z,96.45
2022-09-13T05:18:59.767Z,96.34
2022-09-13T05:19:59.764Z,96.55
2022-09-13T05:20:59.770Z,96.34
2022-09-13T05:21:59.766Z,96.34
2022-09-13T05:22:59.768Z,96.55
2022-09-13T05:23:59.770Z,96.65
2022-09-13T05:24:59.767Z,96.75
2022-09-13T05:25:59.938Z,96.85
2022-09-13T05:26:59.771Z,96.85
2022-09-13T05:27:59.771Z,97.05
2022-09-13T05:28:59.774Z,96.95
2022-09-13T05:29:59.769Z,96.95
2022-09-13T05:30:59.807Z,96.55
2022-09-13T05:31:59.770Z,96.55
2022-09-13T05:32:59.822Z,96.75
2022-09-13T05:33:59.773Z,96.25
2022-09-13T05:34:59.778Z,96.85
2022-09-13T05:35:59.774Z,96.85
2022-09-13T05:36:59.777Z,96.85
2022-09-13T05:37:59.773Z,96.75
2022-09-13T05:39:29.065Z,96.55
2022-09-13T05:40:11.062Z,96.75
2022-09-13T05:40:59.845Z,96.45
2022-09-13T05:41:59.878Z,96.14
2022-09-13T05:42:59.779Z,96.55
2022-09-13T05:44:07.937Z,96.55
2022-09-13T05:44:59.793Z,96.45
2022-09-13T05:45:59.869Z,96.45
2022-09-13T05:46:59.785Z,96.45
2022-09-13T05:47:59.779Z,96.34
2022-09-13T05:48:59.783Z,96.45
2022-09-13T05:50:10.246Z,96.65
2022-09-13T05:50:59.803Z,96.55
2022-09-13T05:51:59.808Z,96.55
2022-09-13T05:52:59.784Z,96.55
2022-09-13T05:53:59.787Z,96.55
2022-09-13T05:54:59.786Z,96.55
2022-09-13T05:55:59.786Z,96.55
2022-09-13T05:56:59.786Z,96.75
2022-09-13T05:57:59.802Z,96.45
2022-09-13T05:58:59.786Z,96.95
2022-09-13T05:59:59.788Z,96.85
2022-09-13T06:00:59.786Z,96.85
2022-09-13T06:01:59.871Z,97.76
2022-09-13T06:02:59.835Z,97.86
2022-09-13T06:03:59.788Z,97.45
2022-09-13T06:04:59.786Z,97.51
2022-09-13T06:05:59.790Z,97.31
2022-09-13T06:06:59.791Z,97.21
2022-09-13T06:07:59.788Z,97.25
2022-09-13T06:08:59.790Z,97.51
2022-09-13T06:09:59.790Z,97.51
2022-09-13T06:10:59.788Z,97.41
2022-09-13T06:11:59.791Z,97.61
2022-09-13T06:12:59.789Z,97.51
2022-09-13T06:13:59.897Z,97.41
2022-09-13T06:14:59.842Z,97.81
2022-09-13T06:15:59.809Z,97.61
2022-09-13T06:16:59.793Z,97.41
2022-09-13T06:17:59.804Z,97.41
2022-09-13T06:18:59.795Z,97.21
2022-09-13T06:19:59.804Z,97.36
2022-09-13T06:20:59.795Z,97.61
2022-09-13T06:21:59.795Z,97.16
2022-09-13T06:22:59.796Z,97.21
2022-09-13T06:23:59.805Z,97.21
2022-09-13T06:24:59.801Z,97.27
2022-09-13T06:26:00.001Z,97.51
2022-09-13T06:26:59.797Z,97.51
2022-09-13T06:27:59.811Z,97.47
2022-09-13T06:28:59.798Z,97.61
2022-09-13T06:29:59.820Z,97.41
2022-09-13T06:30:59.830Z,97.21
2022-09-13T06:31:59.805Z,97.41
2022-09-13T06:32:59.803Z,97.56
2022-09-13T06:33:59.803Z,97.21
2022-09-13T06:34:59.803Z,97.41
2022-09-13T06:35:59.804Z,97.36
2022-09-13T06:36:59.803Z,97.31
2022-09-13T06:37:59.806Z,97.51
2022-09-13T06:38:59.806Z,97.21
2022-09-13T06:39:59.844Z,97.41
2022-09-13T06:40:59.809Z,97.06
2022-09-13T06:41:59.807Z,97.11
2022-09-13T06:42:59.812Z,97.51
2022-09-13T06:43:59.810Z,97.47
2022-09-13T06:44:59.813Z,97.47
2022-09-13T06:45:59.853Z,97.56
2022-09-13T06:46:59.810Z,97.61
2022-09-13T06:47:59.817Z,97.47
2022-09-13T06:48:59.808Z,97.56
2022-09-13T06:49:59.810Z,97.51
2022-09-13T06:50:59.809Z,97.97
2022-09-13T06:51:59.815Z,97.91
2022-09-13T06:52:59.810Z,97.91
2022-09-13T06:53:59.812Z,97.81
2022-09-13T06:54:59.815Z,97.71
2022-09-13T06:55:59.813Z,97.67
2022-09-13T06:56:59.814Z,97.97
2022-09-13T06:57:59.856Z,97.71
2022-09-13T06:58:59.813Z,97.81
2022-09-13T06:59:59.818Z,97.61
2022-09-13T07:00:59.876Z,97.56
2022-09-13T07:01:59.890Z,97.77
2022-09-13T07:02:59.819Z,97.71
2022-09-13T07:03:59.818Z,97.87
2022-09-13T07:04:59.818Z,97.77
2022-09-13T07:05:59.820Z,98.02
2022-09-13T07:06:59.822Z,98.02
2022-09-13T07:07:59.820Z,97.36
2022-09-13T07:08:59.824Z,97.51
2022-09-13T07:09:59.823Z,97.41
2022-09-13T07:10:59.826Z,97.67
2022-09-13T07:11:59.825Z,97.77
2022-09-13T07:12:59.822Z,97.71
2022-09-13T07:13:59.823Z,97.31
2022-09-13T07:14:59.825Z,97.21
2022-09-13T07:15:59.885Z,97.27
2022-09-13T07:16:59.825Z,97.41
2022-09-13T07:17:59.928Z,97.41
2022-09-13T07:18:59.833Z,97.41
2022-09-13T07:19:59.829Z,97.36
2022-09-13T07:20:59.828Z,97.71
2022-09-13T07:21:59.828Z,97.47
2022-09-13T07:22:59.835Z,97.56
2022-09-13T07:23:59.828Z,97.36
2022-09-13T07:24:59.830Z,97.41
2022-09-13T07:26:00.081Z,97.41
2022-09-13T07:26:59.840Z,97.41
2022-09-13T07:27:59.838Z,97.27
2022-09-13T07:28:59.835Z,97.21
2022-09-13T07:29:59.835Z,97.56
2022-09-13T07:30:59.910Z,97.21
2022-09-13T07:31:59.835Z,97.41
2022-09-13T07:32:59.839Z,97.87
2022-09-13T07:33:59.854Z,97.87
2022-09-13T07:34:59.838Z,98.02
2022-09-13T07:35:59.838Z,97.56
2022-09-13T07:36:59.838Z,97.97
2022-09-13T07:37:59.851Z,97.67
2022-09-13T07:38:59.840Z,97.77
2022-09-13T07:39:59.918Z,97.97
2022-09-13T07:40:59.841Z,97.67
2022-09-13T07:41:59.844Z,97.67
2022-09-13T07:42:59.845Z,98.17
2022-09-13T07:43:59.844Z,98.27
2022-09-13T07:44:59.845Z,98.13
2022-09-13T07:45:59.916Z,97.97
2022-09-13T07:46:59.845Z,98.27
2022-09-13T07:47:59.846Z,97.62
2022-09-13T07:48:59.846Z,97.87
2022-09-13T07:49:59.882Z,97.62
2022-09-13T07:50:59.848Z,97.52
2022-09-13T07:51:59.848Z,97.82
2022-09-13T07:52:59.849Z,98.13
2022-09-13T07:53:59.854Z,98.22
2022-09-13T07:54:59.852Z,98.33
2022-09-13T07:55:59.851Z,98.02
2022-09-13T07:56:59.852Z,98.13
2022-09-13T07:57:59.854Z,97.92
2022-09-13T07:58:59.859Z,98.22
2022-09-13T07:59:59.856Z,98.22
2022-09-13T08:00:59.882Z,98.22
2022-09-13T08:01:59.971Z,97.87
2022-09-13T08:02:59.858Z,97.62
2022-09-13T08:03:59.860Z,97.82
2022-09-13T08:04:59.860Z,97.62
2022-09-13T08:05:59.878Z,97.72
2022-09-13T08:06:59.861Z,97.72
2022-09-13T08:07:59.860Z,98.02
2022-09-13T08:08:59.860Z,97.72
2022-09-13T08:09:59.862Z,97.82
2022-09-13T08:10:59.864Z,97.82
2022-09-13T08:11:59.870Z,97.52
2022-09-13T08:12:59.866Z,97.62
2022-09-13T08:13:59.864Z,97.62
2022-09-13T08:14:59.867Z,97.62
2022-09-13T08:15:59.946Z,98.13
2022-09-13T08:16:59.869Z,98.22
2022-09-13T08:17:59.868Z,97.82
2022-09-13T08:18:59.869Z,97.62
2022-09-13T08:19:59.873Z,97.52
2022-09-13T08:20:59.871Z,97.92
2022-09-13T08:21:59.892Z,97.62
2022-09-13T08:22:59.873Z,97.62
2022-09-13T08:23:59.877Z,97.27
2022-09-13T08:24:59.875Z,97.47
2022-09-13T08:26:00.078Z,97.78
2022-09-13T08:26:59.878Z,97.88
2022-09-13T08:27:59.878Z,97.47
2022-09-13T08:28:59.883Z,97.58
2022-09-13T08:29:59.881Z,97.58
2022-09-13T08:30:59.917Z,97.78
2022-09-13T08:31:59.894Z,97.47
2022-09-13T08:32:59.883Z,97.43
2022-09-13T08:33:59.889Z,97.88
2022-09-13T08:34:59.884Z,97.23
2022-09-13T08:35:59.888Z,97.63
2022-09-13T08:36:59.891Z,97.53
2022-09-13T08:37:59.906Z,97.83
2022-09-13T08:38:59.894Z,97.33
2022-09-13T08:39:59.931Z,97.99
2022-09-13T08:40:59.892Z,97.99
2022-09-13T08:41:59.897Z,98.29
2022-09-13T08:42:59.892Z,97.89
2022-09-13T08:43:59.907Z,97.58
2022-09-13T08:44:59.893Z,97.38
2022-09-13T08:45:59.947Z,97.18
2022-09-13T08:46:59.897Z,97.08
2022-09-13T08:47:59.901Z,96.98
2022-09-13T08:48:59.897Z,97.08
2022-09-13T08:49:59.900Z,96.88
2022-09-13T08:50:59.901Z,97.38
2022-09-13T08:51:59.903Z,96.58
2022-09-13T08:52:59.899Z,96.58
2022-09-13T08:53:59.927Z,96.58
2022-09-13T08:54:59.904Z,96.37
2022-09-13T08:55:59.909Z,96.17
2022-09-13T08:56:59.904Z,96.37
2022-09-13T08:57:59.910Z,95.87
2022-09-13T08:58:59.908Z,96.08
2022-09-13T08:59:59.910Z,96.08
2022-09-13T09:00:59.945Z,96.68
2022-09-13T09:01:59.914Z,96.73
2022-09-13T09:02:59.915Z,96.63
2022-09-13T09:03:59.912Z,96.53
2022-09-13T09:04:59.916Z,95.93
2022-09-13T09:05:59.921Z,96.08
2022-09-13T09:06:59.919Z,96.08
2022-09-13T09:07:59.919Z,96.33
2022-09-13T09:08:59.918Z,96.43
2022-09-13T09:10:00.003Z,96.33
2022-09-13T09:10:59.922Z,96.33
2022-09-13T09:11:59.922Z,96.43
2022-09-13T09:12:59.925Z,95.42
2022-09-13T09:13:59.927Z,94.32
2022-09-13T09:14:59.927Z,93.61
2022-09-13T09:15:59.961Z,92.50
2022-09-13T09:16:59.936Z,91.60
2022-09-13T09:17:59.934Z,92.10
2022-09-13T09:18:59.941Z,92.00
2022-09-13T09:19:59.937Z,92.30
2022-09-13T09:20:59.934Z,92.50
2022-09-13T09:21:59.935Z,92.50
2022-09-13T09:22:59.937Z,93.11
2022-09-13T09:23:59.938Z,93.11
2022-09-13T09:24:59.944Z,93.41
2022-09-13T09:26:00.523Z,93.57
2022-09-13T09:26:59.943Z,93.51
2022-09-13T09:27:59.946Z,93.51
2022-09-13T09:28:59.944Z,93.21
2022-09-13T09:29:59.943Z,93.16
2022-09-13T09:31:00.067Z,93.57
2022-09-13T09:31:59.950Z,93.41
2022-09-13T09:32:59.946Z,93.51
2022-09-13T09:33:59.955Z,93.46
2022-09-13T09:34:59.949Z,93.46
2022-09-13T09:35:59.950Z,92.36
2022-09-13T09:36:59.951Z,92.16
2022-09-13T09:37:59.952Z,90.34
2022-09-13T09:38:59.954Z,89.34
2022-09-13T09:40:00.003Z,89.14
2022-09-13T09:40:59.957Z,87.73
2022-09-13T09:41:59.991Z,88.59
2022-09-13T09:42:59.962Z,88.70
2022-09-13T09:43:59.960Z,87.39
2022-09-13T09:44:59.961Z,88.19
2022-09-13T09:46:00.018Z,88.59
2022-09-13T09:46:59.965Z,88.79
2022-09-13T09:47:59.967Z,88.70
2022-09-13T09:48:59.966Z,89.10
2022-09-13T09:49:59.973Z,89.10
2022-09-13T09:50:59.980Z,88.49
2022-09-13T09:51:59.973Z,88.90
2022-09-13T09:52:59.971Z,89.36
2022-09-13T09:53:59.973Z,89.30
2022-09-13T09:54:59.975Z,90.30
2022-09-13T09:55:59.976Z,90.11
2022-09-13T09:56:59.978Z,90.30
2022-09-13T09:58:00.156Z,90.50
2022-09-13T09:58:59.980Z,90.00
2022-09-13T09:59:59.983Z,90.70
2022-09-13T10:01:00.050Z,90.16
2022-09-13T10:02:00.044Z,90.61
2022-09-13T10:02:59.984Z,89.00
2022-09-13T10:03:59.985Z,90.30
2022-09-13T10:04:59.985Z,90.50
2022-09-13T10:05:59.986Z,90.36
2022-09-13T10:06:59.990Z,90.16
2022-09-13T10:07:59.988Z,90.86
2022-09-13T10:08:59.989Z,90.26
2022-09-13T10:09:59.998Z,89.26
2022-09-13T10:10:59.992Z,89.56
2022-09-13T10:11:59.995Z,90.16
2022-09-13T10:12:59.994Z,89.62
2022-09-13T10:14:00.117Z,90.22
2022-09-13T10:14:59.999Z,90.26
2022-09-13T10:15:59.998Z,87.91
2022-09-13T10:17:00.060Z,87.51
2022-09-13T10:18:00.000Z,87.71
2022-09-13T10:19:00.004Z,88.71
2022-09-13T10:20:00.002Z,88.77
2022-09-13T10:21:00.004Z,86.76
2022-09-13T10:22:00.025Z,86.96
2022-09-13T10:23:00.007Z,87.26
2022-09-13T10:24:00.009Z,87.87
2022-09-13T10:25:00.011Z,88.47
2022-09-13T10:26:00.009Z,88.37
2022-09-13T10:27:00.013Z,88.37
2022-09-13T10:28:00.013Z,88.77
2022-09-13T10:29:00.019Z,88.57
2022-09-13T10:30:00.160Z,88.17
2022-09-13T10:31:00.078Z,88.41
2022-09-13T10:32:00.019Z,88.51
2022-09-13T10:33:00.032Z,88.41
2022-09-13T10:34:00.043Z,88.57
2022-09-13T10:35:00.023Z,88.61
2022-09-13T10:36:00.033Z,88.51
2022-09-13T10:37:00.029Z,88.91
2022-09-13T10:38:00.050Z,89.22
2022-09-13T10:39:00.029Z,88.91
2022-09-13T10:40:00.060Z,89.22
2022-09-13T10:41:00.041Z,89.01
2022-09-13T10:42:00.082Z,89.01
2022-09-13T10:43:00.057Z,89.31
2022-09-13T10:44:00.067Z,90.32
2022-09-13T10:45:00.041Z,90.22
2022-09-13T10:46:00.182Z,90.32
2022-09-13T10:47:00.048Z,90.32
2022-09-13T10:48:00.042Z,90.02
2022-09-13T10:49:00.048Z,90.32
2022-09-13T10:50:00.047Z,90.32
2022-09-13T10:51:00.067Z,90.42
2022-09-13T10:52:00.069Z,90.62
2022-09-13T10:53:00.056Z,90.02
2022-09-13T10:54:00.055Z,90.42
2022-09-13T10:55:00.054Z,89.82
2022-09-13T10:56:00.060Z,90.52
2022-09-13T10:57:00.063Z,90.62
2022-09-13T10:58:00.075Z,91.83
2022-09-13T10:59:00.063Z,91.42
2022-09-13T11:00:00.063Z,90.92
2022-09-13T11:01:00.109Z,90.62
2022-09-13T11:02:00.085Z,91.72
2022-09-13T11:03:00.071Z,91.48
2022-09-13T11:04:00.145Z,91.58
2022-09-13T11:05:00.077Z,90.78
2022-09-13T11:06:00.070Z,90.62
2022-09-13T11:07:01.930Z,88.81
2022-09-13T11:08:00.071Z,89.58
2022-09-13T11:09:00.077Z,89.37
2022-09-13T11:10:00.099Z,88.57
2022-09-13T11:11:00.083Z,88.47
2022-09-13T11:12:00.088Z,88.17
2022-09-13T11:13:00.079Z,89.67
2022-09-13T11:14:00.085Z,89.17
2022-09-13T11:15:00.087Z,89.17
2022-09-13T11:16:00.094Z,88.97
2022-09-13T11:17:00.152Z,88.87
2022-09-13T11:18:00.123Z,87.26
2022-09-13T11:19:00.090Z,87.57
2022-09-13T11:20:00.090Z,87.46
2022-09-13T11:21:00.089Z,88.07
2022-09-13T11:22:00.100Z,88.27
2022-09-13T11:23:00.110Z,88.37
2022-09-13T11:24:00.095Z,88.47
2022-09-13T11:25:00.103Z,88.77
2022-09-13T11:26:00.122Z,88.07
2022-09-13T11:27:00.101Z,87.87
2022-09-13T11:28:00.102Z,87.57
2022-09-13T11:29:00.108Z,87.96
2022-09-13T11:30:00.150Z,87.96
2022-09-13T11:31:00.109Z,87.96
2022-09-13T11:32:00.185Z,87.46
2022-09-13T11:33:00.115Z,88.77
2022-09-13T11:34:00.136Z,90.58
2022-09-13T11:35:00.115Z,90.58
2022-09-13T11:36:00.116Z,90.17
2022-09-13T11:37:00.116Z,90.17
2022-09-13T11:38:00.123Z,89.67
2022-09-13T11:39:00.132Z,88.93
2022-09-13T11:40:00.228Z,87.42
2022-09-13T11:41:00.125Z,86.42
2022-09-13T11:42:00.123Z,85.78
2022-09-13T11:43:00.130Z,85.68
2022-09-13T11:44:00.130Z,84.74
2022-09-13T11:45:00.134Z,85.53
2022-09-13T11:46:00.203Z,84.69
2022-09-13T11:47:00.130Z,84.39
2022-09-13T11:48:00.138Z,83.49
2022-09-13T11:49:00.134Z,81.99
2022-09-13T11:50:00.159Z,82.59
2022-09-13T11:51:00.138Z,82.24
2022-09-13T11:52:00.138Z,81.95
2022-09-13T11:53:00.145Z,80.54
2022-09-13T11:54:00.152Z,81.15
2022-09-13T11:55:00.145Z,82.45
2022-09-13T11:56:00.154Z,82.95
2022-09-13T11:57:00.154Z,82.95
2022-09-13T11:58:00.148Z,82.95
2022-09-13T11:59:00.150Z,83.05
2022-09-13T12:00:00.164Z,82.89
2022-09-13T12:01:00.162Z,82.89
2022-09-13T12:02:00.352Z,83.29
2022-09-13T12:03:00.295Z,83.99
2022-09-13T12:04:00.164Z,82.85
2022-09-13T12:05:21.117Z,81.65
2022-09-13T12:06:00.194Z,81.74
2022-09-13T12:07:00.171Z,81.15
2022-09-13T12:08:00.168Z,81.91
2022-09-13T12:09:00.166Z,82.31
2022-09-13T12:10:00.193Z,82.51
2022-09-13T12:11:00.173Z,82.71
2022-09-13T12:12:00.173Z,82.75
2022-09-13T12:13:00.174Z,83.05
2022-09-13T12:14:00.176Z,82.75
2022-09-13T12:15:00.181Z,83.65
2022-09-13T12:16:00.177Z,85.25
2022-09-13T12:17:00.213Z,84.79
2022-09-13T12:18:00.188Z,84.69
2022-09-13T12:19:00.185Z,83.99
2022-09-13T12:20:00.193Z,82.89
2022-09-13T12:21:00.191Z,82.45
2022-09-13T12:22:00.208Z,83.25
2022-09-13T12:23:00.192Z,83.61
2022-09-13T12:24:00.233Z,83.85
2022-09-13T12:25:00.257Z,83.65
2022-09-13T12:26:00.203Z,83.65
2022-09-13T12:27:00.202Z,83.75
2022-09-13T12:28:00.210Z,83.65
2022-09-13T12:29:00.205Z,83.65
2022-09-13T12:30:00.206Z,84.05
2022-09-13T12:31:00.211Z,85.30
2022-09-13T12:32:00.283Z,85.49
2022-09-13T12:33:00.213Z,84.79
2022-09-13T12:34:00.213Z,84.99
2022-09-13T12:35:00.215Z,84.49
2022-09-13T12:36:00.214Z,82.29
2022-09-13T12:37:00.218Z,82.05
2022-09-13T12:38:00.322Z,81.74
2022-09-13T12:39:00.222Z,81.95
2022-09-13T12:40:00.332Z,80.51
2022-09-13T12:41:00.227Z,81.30
2022-09-13T12:42:00.225Z,82.21
2022-09-13T12:43:00.238Z,81.91
2022-09-13T12:44:00.231Z,82.45
2022-09-13T12:45:00.230Z,83.11
2022-09-13T12:46:00.264Z,82.24
2022-09-13T12:47:00.236Z,82.55
2022-09-13T12:48:00.239Z,83.75
2022-09-13T12:49:00.243Z,84.25
2022-09-13T12:50:15.079Z,83.95
2022-09-13T12:51:00.260Z,85.10
2022-09-13T12:52:00.243Z,85.89
2022-09-13T12:53:00.245Z,85.89